createdAt,value
2022-12-19T00:00:32.110Z,2.90
2022-12-19T00:03:00.535Z,3.30
2022-12-19T00:05:30.284Z,2.80
2022-12-19T00:07:59.002Z,3.20
2022-12-19T00:10:30.590Z,3.00
2022-12-19T00:12:58.795Z,3.20
2022-12-19T00:15:26.988Z,3.10
2022-12-19T00:17:55.163Z,3.80
2022-12-19T00:20:23.379Z,3.20
2022-12-19T00:22:52.957Z,3.50
2022-12-19T00:25:23.971Z,3.50
2022-12-19T00:27:53.397Z,3.40
2022-12-19T00:30:21.516Z,4.80
2022-12-19T00:32:50.319Z,3.80
2022-12-19T00:35:18.562Z,3.60
2022-12-19T00:37:49.831Z,3.30
2022-12-19T00:40:19.785Z,3.50
2022-12-19T00:42:53.418Z,3.60
2022-12-19T00:45:22.363Z,3.90
2022-12-19T00:47:50.609Z,3.70
2022-12-19T00:50:18.840Z,3.80
2022-12-19T00:52:46.982Z,4.10
2022-12-19T00:55:18.807Z,3.90
2022-12-19T00:57:49.579Z,4.00
2022-12-19T01:00:20.680Z,4.10
2022-12-19T01:02:48.986Z,4.40
2022-12-19T01:05:17.549Z,4.30
2022-12-19T01:07:47.584Z,4.40
2022-12-19T01:10:17.922Z,4.50
2022-12-19T01:12:47.111Z,4.50
2022-12-19T01:15:17.570Z,4.70
2022-12-19T01:17:46.134Z,4.60
2022-12-19T01:20:15.555Z,4.80
2022-12-19T01:22:43.965Z,4.70
2022-12-19T01:25:12.904Z,4.80
2022-12-19T01:27:41.430Z,5.70
2022-12-19T01:30:13.421Z,4.80
2022-12-19T01:32:41.894Z,4.80
2022-12-19T01:35:14.590Z,4.90
2022-12-19T01:37:50.535Z,4.90
2022-12-19T01:40:18.830Z,4.90
2022-12-19T01:42:50.291Z,4.90
2022-12-19T01:45:34.431Z,4.90
2022-12-19T01:52:04.324Z,5.20
2022-12-19T01:55:05.234Z,5.20
2022-12-19T01:57:35.615Z,5.20
2022-12-19T02:00:11.144Z,5.40
2022-12-19T02:02:46.132Z,5.30
2022-12-19T02:05:14.638Z,6.00
2022-12-19T02:07:44.322Z,5.60
2022-12-19T02:10:12.993Z,5.90
2022-12-19T02:12:44.556Z,5.40
2022-12-19T02:15:16.199Z,5.40
2022-12-19T02:18:00.231Z,5.40
2022-12-19T02:21:05.330Z,5.50
2022-12-19T02:24:23.944Z,5.50
2022-12-19T02:27:40.247Z,5.50
2022-12-19T02:30:13.691Z,5.50
2022-12-19T02:32:54.783Z,5.50
2022-12-19T02:35:35.062Z,5.40
2022-12-19T02:38:13.240Z,5.50
2022-12-19T02:40:46.471Z,5.50
2022-12-19T02:43:20.443Z,5.50
2022-12-19T02:45:49.753Z,5.50
2022-12-19T02:48:21.231Z,5.50
2022-12-19T02:51:09.835Z,5.70
2022-12-19T02:53:45.418Z,5.60
2022-12-19T02:56:40.887Z,5.60
2022-12-19T02:59:44.913Z,5.60
2022-12-19T03:02:22.860Z,5.60
2022-12-19T03:04:59.656Z,5.90
2022-12-19T03:07:35.243Z,5.60
2022-12-19T03:10:10.294Z,5.70
2022-12-19T03:12:45.818Z,5.70
2022-12-19T03:15:14.937Z,6.00
2022-12-19T03:17:43.500Z,5.70
2022-12-19T03:20:23.859Z,5.80
2022-12-19T03:22:52.318Z,5.80
2022-12-19T03:25:23.250Z,5.80
2022-12-19T03:27:57.080Z,6.00
2022-12-19T03:30:27.964Z,6.00
2022-12-19T03:32:56.622Z,6.00
2022-12-19T03:35:28.532Z,6.00
2022-12-19T03:37:59.863Z,6.10
2022-12-19T03:40:30.019Z,6.10
2022-12-19T03:43:11.217Z,6.10
2022-12-19T03:45:48.354Z,6.20
2022-12-19T03:48:22.083Z,6.40
2022-12-19T03:51:00.242Z,6.30
2022-12-19T03:53:41.435Z,6.30
2022-12-19T03:56:18.385Z,6.40
2022-12-19T03:58:51.711Z,6.40
2022-12-19T04:01:21.770Z,8.30
2022-12-19T04:03:51.680Z,6.40
2022-12-19T04:06:22.103Z,6.40
2022-12-19T04:08:50.644Z,6.40
2022-12-19T04:11:21.753Z,6.40
2022-12-19T04:13:54.414Z,6.50
2022-12-19T04:16:30.478Z,6.40
2022-12-19T04:19:04.437Z,6.50
2022-12-19T04:21:40.569Z,6.50
2022-12-19T04:24:13.685Z,6.50
2022-12-19T04:26:45.641Z,6.80
2022-12-19T04:29:15.740Z,6.40
2022-12-19T04:31:44.747Z,8.20
2022-12-19T04:34:12.941Z,6.40
2022-12-19T04:36:42.562Z,6.40
2022-12-19T04:39:10.752Z,6.40
2022-12-19T04:41:39.343Z,6.40
2022-12-19T04:44:07.959Z,6.40
2022-12-19T04:46:36.177Z,6.40
2022-12-19T04:49:04.481Z,6.50
2022-12-19T04:51:32.933Z,6.40
2022-12-19T04:54:02.947Z,6.60
2022-12-19T04:56:31.324Z,6.50
2022-12-19T04:59:00.189Z,6.50
2022-12-19T05:01:28.894Z,6.50
2022-12-19T05:04:02.813Z,6.50
2022-12-19T05:06:33.322Z,6.50
2022-12-19T05:09:03.188Z,6.50
2022-12-19T05:11:31.438Z,6.60
2022-12-19T05:14:00.502Z,6.60
2022-12-19T05:16:28.782Z,6.60
2022-12-19T05:18:57.336Z,6.70
2022-12-19T05:21:25.952Z,6.70
2022-12-19T05:23:54.221Z,6.70
2022-12-19T05:26:23.842Z,6.60
2022-12-19T05:28:52.057Z,6.60
2022-12-19T05:31:21.843Z,6.60
2022-12-19T05:33:50.506Z,6.60
2022-12-19T05:36:20.124Z,6.90
2022-12-19T05:38:48.403Z,6.70
2022-12-19T05:41:17.874Z,6.60
2022-12-19T05:43:52.412Z,6.70
2022-12-19T05:46:20.923Z,6.60
2022-12-19T05:48:49.266Z,6.70
2022-12-19T05:51:17.874Z,6.60
2022-12-19T05:53:46.038Z,6.70
2022-12-19T05:56:15.803Z,6.70
2022-12-19T05:58:45.215Z,6.70
2022-12-19T06:01:17.308Z,6.70
2022-12-19T06:03:46.212Z,7.00
2022-12-19T06:06:16.009Z,6.70
2022-12-19T06:08:44.796Z,6.70
2022-12-19T06:11:14.262Z,6.80
2022-12-19T06:13:42.949Z,6.80
2022-12-19T06:16:13.945Z,6.70
2022-12-19T06:18:45.582Z,6.90
2022-12-19T06:21:15.920Z,6.70
2022-12-19T06:23:44.337Z,6.90
2022-12-19T06:26:18.572Z,6.70
2022-12-19T06:28:47.848Z,6.70
2022-12-19T06:31:16.520Z,6.80
2022-12-19T06:33:46.319Z,6.80
2022-12-19T06:36:17.650Z,6.80
2022-12-19T06:38:45.822Z,6.80
2022-12-19T06:41:31.711Z,6.80
2022-12-19T06:44:00.131Z,6.80
2022-12-19T06:46:28.369Z,6.80
2022-12-19T06:48:58.017Z,6.80
2022-12-19T06:51:26.280Z,6.90
2022-12-19T06:53:55.510Z,7.00
2022-12-19T06:56:24.037Z,7.00
2022-12-19T06:58:52.613Z,7.10
2022-12-19T07:01:22.397Z,7.10
2022-12-19T07:03:51.060Z,7.20
2022-12-19T07:06:22.216Z,7.30
2022-12-19T07:08:50.412Z,7.20
2022-12-19T07:11:18.565Z,7.30
2022-12-19T07:18:45.303Z,7.20
2022-12-19T07:23:44.622Z,7.10
2022-12-19T07:28:44.448Z,7.10
2022-12-19T07:31:12.800Z,7.40
2022-12-19T07:36:09.794Z,7.30
2022-12-19T07:38:37.946Z,7.30
2022-12-19T07:41:08.019Z,7.50
2022-12-19T07:43:36.080Z,7.40
2022-12-19T07:46:04.275Z,7.40
2022-12-19T07:48:32.497Z,7.50
2022-12-19T07:51:00.686Z,7.40
2022-12-19T07:53:29.470Z,7.40
2022-12-19T07:55:57.567Z,7.60
2022-12-19T07:58:27.140Z,7.50
2022-12-19T08:03:25.430Z,7.70
2022-12-19T08:05:53.785Z,7.60
2022-12-19T08:08:21.954Z,7.50
2022-12-19T08:10:50.148Z,7.80
2022-12-19T08:13:18.315Z,7.70
2022-12-19T08:15:47.917Z,6.60
2022-12-19T08:18:16.124Z,7.70
2022-12-19T08:20:47.312Z,7.80
2022-12-19T08:23:15.677Z,6.70
2022-12-19T08:28:12.513Z,7.90
2022-12-19T08:30:41.397Z,8.00
2022-12-19T08:35:39.594Z,8.00
2022-12-19T08:40:36.323Z,8.00
2022-12-19T08:43:04.470Z,8.00
2022-12-19T08:45:32.611Z,8.10
2022-12-19T08:48:00.791Z,8.10
2022-12-19T08:50:30.369Z,8.60
2022-12-19T08:52:58.562Z,8.20
2022-12-19T08:55:27.735Z,8.40
2022-12-19T08:57:57.934Z,8.20
2022-12-19T09:00:26.093Z,8.30
2022-12-19T09:02:55.602Z,8.10
2022-12-19T09:06:02.149Z,8.30
2022-12-19T09:08:13.549Z,8.20
2022-12-19T09:10:41.850Z,8.30
2022-12-19T09:13:09.941Z,8.30
2022-12-19T09:15:38.093Z,8.20
2022-12-19T09:18:07.449Z,8.30
2022-12-19T09:25:35.160Z,8.10
2022-12-19T09:28:27.203Z,8.20
2022-12-19T09:30:57.303Z,8.10
2022-12-19T09:33:25.535Z,8.10
2022-12-19T09:35:54.486Z,8.10
2022-12-19T09:38:26.408Z,8.20
2022-12-19T09:41:11.014Z,8.00
2022-12-19T09:43:52.328Z,8.00
2022-12-19T09:46:21.793Z,8.00
2022-12-19T09:48:55.605Z,8.10
2022-12-19T09:51:34.696Z,8.10
2022-12-19T09:54:08.368Z,8.10
2022-12-19T09:56:46.428Z,9.40
2022-12-19T09:59:22.599Z,8.20
2022-12-19T10:02:00.041Z,8.20
2022-12-19T10:04:31.385Z,8.30
2022-12-19T10:07:21.956Z,8.40
2022-12-19T10:12:36.734Z,8.30
2022-12-19T10:12:59.641Z,8.60
2022-12-19T10:15:38.875Z,8.40
2022-12-19T10:18:23.594Z,8.40
2022-12-19T10:21:00.931Z,8.40
2022-12-19T10:23:57.916Z,8.50
2022-12-19T10:26:31.344Z,8.70
2022-12-19T10:29:18.007Z,8.80
2022-12-19T10:31:54.810Z,8.90
2022-12-19T10:34:25.417Z,9.00
2022-12-19T10:37:25.640Z,9.20
2022-12-19T10:40:01.006Z,9.30
2022-12-19T10:42:37.703Z,9.50
2022-12-19T10:45:15.236Z,9.60
2022-12-19T10:47:43.659Z,9.80
2022-12-19T10:50:18.522Z,9.80
2022-12-19T10:52:57.741Z,9.80
2022-12-19T10:55:35.556Z,9.80
2022-12-19T10:58:14.326Z,9.90
2022-12-19T11:01:12.960Z,10.00
2022-12-19T11:03:43.430Z,10.10
2022-12-19T11:06:44.737Z,10.20
2022-12-19T11:09:25.683Z,10.10
2022-12-19T11:16:14.583Z,10.10
2022-12-19T11:19:37.098Z,10.20
2022-12-19T11:24:27.977Z,10.30
2022-12-19T11:29:25.823Z,10.30
2022-12-19T11:30:08.455Z,10.30
2022-12-19T11:30:38.371Z,10.70
2022-12-19T11:30:47.657Z,10.40
2022-12-19T11:34:52.119Z,10.60
2022-12-19T11:37:28.184Z,10.70
2022-12-19T11:40:00.816Z,10.70
2022-12-19T11:42:36.450Z,10.80
2022-12-19T11:45:12.469Z,10.80
2022-12-19T11:47:45.761Z,10.90
2022-12-19T11:50:22.895Z,10.90
2022-12-19T11:53:09.454Z,11.00
2022-12-19T11:55:45.737Z,11.10
2022-12-19T11:58:14.905Z,11.20
2022-12-19T12:00:51.057Z,11.20
2022-12-19T12:04:02.375Z,11.30
2022-12-19T12:06:35.849Z,11.30
2022-12-19T12:11:22.027Z,11.30
2022-12-19T12:20:22.789Z,11.30
2022-12-19T12:29:13.866Z,11.20
2022-12-19T12:31:00.702Z,11.20
2022-12-19T12:31:07.301Z,11.20
2022-12-19T12:31:39.471Z,11.00
2022-12-19T12:31:40.507Z,12.50
2022-12-19T12:31:50.267Z,11.20
2022-12-19T12:35:36.475Z,10.90
2022-12-19T12:37:49.508Z,10.90
2022-12-19T12:39:25.525Z,10.90
2022-12-19T12:42:08.741Z,10.70
2022-12-19T12:44:45.210Z,10.60
2022-12-19T12:47:20.521Z,10.60
2022-12-19T12:49:52.766Z,10.50
2022-12-19T12:52:25.290Z,10.50
2022-12-19T12:54:56.035Z,10.50
2022-12-19T12:57:35.859Z,10.40
2022-12-19T13:00:20.482Z,10.70
2022-12-19T13:02:53.843Z,10.30
2022-12-19T13:05:38.542Z,10.10
2022-12-19T13:08:36.902Z,9.50
2022-12-19T13:11:32.901Z,10.30
2022-12-19T13:14:01.225Z,10.30
2022-12-19T13:16:59.580Z,11.10
2022-12-19T13:19:29.576Z,10.30
2022-12-19T13:22:17.714Z,10.40
2022-12-19T13:24:47.867Z,10.40
2022-12-19T13:27:48.647Z,10.40
2022-12-19T13:30:20.361Z,10.50
2022-12-19T13:33:07.548Z,10.60
2022-12-19T13:37:46.601Z,10.60
2022-12-19T13:39:49.873Z,10.70
2022-12-19T13:41:45.985Z,10.60
2022-12-19T13:44:14.842Z,10.70
2022-12-19T13:46:45.605Z,10.60
2022-12-19T13:49:20.107Z,10.60
2022-12-19T13:51:50.253Z,10.60
2022-12-19T13:54:23.984Z,10.80
2022-12-19T13:56:53.853Z,10.90
2022-12-19T13:59:24.766Z,10.90
2022-12-19T14:01:56.415Z,10.80
2022-12-19T14:04:30.445Z,10.70
2022-12-19T14:07:02.390Z,10.70
2022-12-19T14:11:27.195Z,10.50
2022-12-19T14:14:00.337Z,10.40
2022-12-19T14:15:35.566Z,10.30
2022-12-19T14:18:44.157Z,10.20
2022-12-19T14:22:05.227Z,10.10
2022-12-19T14:24:17.143Z,10.00
2022-12-19T14:28:24.526Z,10.00
2022-12-19T14:30:26.492Z,10.10
2022-12-19T14:33:44.255Z,10.10
2022-12-19T14:36:08.840Z,10.10
2022-12-19T14:39:20.191Z,9.90
2022-12-19T14:41:09.549Z,9.90
2022-12-19T14:44:00.553Z,9.90
2022-12-19T14:54:16.484Z,10.10
2022-12-19T14:54:18.061Z,10.00
2022-12-19T14:54:29.350Z,10.10
2022-12-19T14:56:00.472Z,10.10
2022-12-19T14:58:53.746Z,10.10
2022-12-19T15:01:25.746Z,10.00
2022-12-19T15:04:47.968Z,10.00
2022-12-19T15:07:07.550Z,10.10
2022-12-19T15:11:08.240Z,10.10
2022-12-19T15:13:47.405Z,10.20
2022-12-19T15:15:46.093Z,10.10
2022-12-19T15:18:21.279Z,10.10
2022-12-19T15:20:49.816Z,10.10
2022-12-19T15:23:22.382Z,10.10
2022-12-19T15:26:09.501Z,10.10
2022-12-19T15:28:43.349Z,10.10
2022-12-19T15:31:25.447Z,10.10
2022-12-19T15:34:33.058Z,10.20
2022-12-19T15:36:41.951Z,10.00
2022-12-19T15:39:10.151Z,9.90
2022-12-19T15:41:39.769Z,9.80
2022-12-19T15:44:12.150Z,9.60
2022-12-19T15:46:46.647Z,9.70
2022-12-19T15:49:17.907Z,9.90
2022-12-19T15:51:46.784Z,9.80
2022-12-19T15:54:47.279Z,9.80
2022-12-19T15:57:04.509Z,9.80
2022-12-19T15:59:38.005Z,9.80
2022-12-19T16:02:17.232Z,9.80
2022-12-19T16:04:47.286Z,11.40
2022-12-19T16:07:17.666Z,9.90
2022-12-19T16:09:46.133Z,9.80
2022-12-19T16:12:19.301Z,9.90
2022-12-19T16:14:49.532Z,10.00
2022-12-19T16:17:23.102Z,9.90
2022-12-19T16:19:51.604Z,9.80
2022-12-19T16:22:22.565Z,9.80
2022-12-19T16:24:51.510Z,9.80
2022-12-19T16:27:24.851Z,9.80
2022-12-19T16:29:54.326Z,9.70
2022-12-19T16:32:24.615Z,9.60
2022-12-19T16:34:54.351Z,9.50
2022-12-19T16:37:25.913Z,9.50
2022-12-19T16:39:56.830Z,9.60
2022-12-19T16:42:26.373Z,9.70
2022-12-19T16:44:54.512Z,9.80
2022-12-19T16:47:23.208Z,9.90
2022-12-19T16:49:51.543Z,9.90
2022-12-19T16:52:19.719Z,10.40
2022-12-19T16:54:47.843Z,10.20
2022-12-19T16:57:20.802Z,10.10
2022-12-19T16:59:52.071Z,10.20
2022-12-19T17:02:41.684Z,10.20
2022-12-19T17:05:18.357Z,10.10
2022-12-19T17:07:46.988Z,10.10
2022-12-19T17:10:19.811Z,10.20
2022-12-19T17:12:51.279Z,10.20
2022-12-19T17:15:28.101Z,10.20
2022-12-19T17:17:59.315Z,10.20
2022-12-19T17:20:31.829Z,10.20
2022-12-19T17:23:00.135Z,10.20
2022-12-19T17:25:29.438Z,10.20
2022-12-19T17:27:57.698Z,10.30
2022-12-19T17:30:27.585Z,10.20
2022-12-19T17:32:56.679Z,10.20
2022-12-19T17:35:28.831Z,10.80
2022-12-19T17:37:58.388Z,10.30
2022-12-19T17:40:29.053Z,10.30
2022-12-19T17:42:57.946Z,10.30
2022-12-19T17:45:29.749Z,10.30
2022-12-19T17:48:02.980Z,10.40
2022-12-19T17:50:37.380Z,10.40
2022-12-19T17:53:06.134Z,10.90
2022-12-19T17:55:34.764Z,10.20
2022-12-19T17:58:03.169Z,10.20
2022-12-19T18:00:34.019Z,10.80
2022-12-19T18:03:06.793Z,10.40
2022-12-19T18:05:36.980Z,10.40
2022-12-19T18:08:17.092Z,10.40
2022-12-19T18:10:45.223Z,10.30
2022-12-19T18:13:13.517Z,10.10
2022-12-19T18:15:43.159Z,9.90
2022-12-19T18:18:14.700Z,9.80
2022-12-19T18:20:44.706Z,9.90
2022-12-19T18:23:17.684Z,9.80
2022-12-19T18:25:46.950Z,9.60
2022-12-19T18:28:16.053Z,9.60
2022-12-19T18:30:47.170Z,8.90
2022-12-19T18:33:19.656Z,9.50
2022-12-19T18:35:49.782Z,9.50
2022-12-19T18:38:20.357Z,9.60
2022-12-19T18:40:50.132Z,9.60
2022-12-19T18:43:19.130Z,10.20
2022-12-19T18:45:51.875Z,9.60
2022-12-19T18:48:25.925Z,9.50
2022-12-19T18:50:54.445Z,9.40
2022-12-19T18:53:26.508Z,9.60
2022-12-19T18:55:57.953Z,9.50
2022-12-19T18:58:26.648Z,9.60
2022-12-19T19:00:59.692Z,9.60
2022-12-19T19:03:31.028Z,9.50
2022-12-19T19:06:00.120Z,9.60
2022-12-19T19:08:31.334Z,9.50
2022-12-19T19:10:59.593Z,9.50
2022-12-19T19:13:28.885Z,9.60
2022-12-19T19:16:01.675Z,9.50
2022-12-19T19:18:33.161Z,9.60
2022-12-19T19:21:02.356Z,9.60
2022-12-19T19:23:34.624Z,9.70
2022-12-19T19:26:02.860Z,10.00
2022-12-19T19:28:31.328Z,9.60
2022-12-19T19:31:02.415Z,9.60
2022-12-19T19:33:35.255Z,9.50
2022-12-19T19:36:12.086Z,9.50
2022-12-19T19:38:41.406Z,9.40
2022-12-19T19:41:09.497Z,9.50
2022-12-19T19:43:37.615Z,9.40
2022-12-19T19:46:07.323Z,9.50
2022-12-19T19:48:35.846Z,9.60
2022-12-19T19:51:04.336Z,9.60
2022-12-19T19:53:32.488Z,9.60
2022-12-19T19:56:02.170Z,9.60
2022-12-19T19:58:31.174Z,9.70
2022-12-19T20:00:59.366Z,9.60
2022-12-19T20:03:29.582Z,9.70
2022-12-19T20:06:01.301Z,9.80
2022-12-19T20:08:35.184Z,10.20
2022-12-19T20:11:07.502Z,10.40
2022-12-19T20:13:35.925Z,10.50
2022-12-19T20:16:04.892Z,10.50
2022-12-19T20:18:34.471Z,10.40
2022-12-19T20:21:04.719Z,10.30
2022-12-19T20:23:36.035Z,10.40
2022-12-19T20:26:05.740Z,10.50
2022-12-19T20:28:34.756Z,10.50
2022-12-19T20:31:03.282Z,10.50
2022-12-19T20:33:34.238Z,10.90
2022-12-19T20:36:07.081Z,10.40
2022-12-19T20:38:35.400Z,10.50
2022-12-19T20:41:03.859Z,10.40
2022-12-19T20:43:32.413Z,10.40
2022-12-19T20:46:05.407Z,10.30
2022-12-19T20:48:35.541Z,10.20
2022-12-19T20:51:05.228Z,10.50
2022-12-19T20:53:34.173Z,10.50
2022-12-19T20:56:03.738Z,10.30
2022-12-19T20:58:34.926Z,10.20
2022-12-19T21:01:07.249Z,10.20
2022-12-19T21:03:37.984Z,10.40
2022-12-19T21:06:07.155Z,10.40
2022-12-19T21:08:36.276Z,10.40
2022-12-19T21:11:06.313Z,10.40
2022-12-19T21:13:34.558Z,10.20
2022-12-19T21:16:06.826Z,10.20
2022-12-19T21:18:37.148Z,10.30
2022-12-19T21:21:05.770Z,10.20
2022-12-19T21:23:34.916Z,10.20
2022-12-19T21:26:04.983Z,10.10
2022-12-19T21:28:33.763Z,10.10
2022-12-19T21:31:03.890Z,10.00
2022-12-19T21:33:32.221Z,9.80
2022-12-19T21:36:08.115Z,10.10
2022-12-19T21:38:36.558Z,10.10
2022-12-19T21:41:05.623Z,10.00
2022-12-19T21:43:33.872Z,10.10
2022-12-19T21:46:09.921Z,10.10
2022-12-19T21:48:39.433Z,10.10
2022-12-19T21:51:10.263Z,10.00
2022-12-19T21:53:39.415Z,10.10
2022-12-19T21:56:09.866Z,10.20
2022-12-19T21:58:38.054Z,10.10
2022-12-19T22:01:08.627Z,10.20
2022-12-19T22:03:37.727Z,10.80
2022-12-19T22:06:08.635Z,10.30
2022-12-19T22:08:38.401Z,10.20
2022-12-19T22:11:14.499Z,10.30
2022-12-19T22:13:42.820Z,10.70
2022-12-19T22:16:11.442Z,10.40
2022-12-19T22:18:40.086Z,10.40
2022-12-19T22:21:10.169Z,10.60
2022-12-19T22:23:40.225Z,10.40
2022-12-19T22:26:10.552Z,10.60
2022-12-19T22:28:40.820Z,10.60
2022-12-19T22:31:17.785Z,10.60
2022-12-19T22:33:46.636Z,10.70
2022-12-19T22:36:15.953Z,10.70
2022-12-19T22:38:49.110Z,10.50
2022-12-19T22:41:18.295Z,10.70
2022-12-19T22:43:47.276Z,10.90
2022-12-19T22:46:17.880Z,10.60
2022-12-19T22:48:48.401Z,10.50
2022-12-19T22:51:18.247Z,10.50
2022-12-19T22:53:48.648Z,10.50
2022-12-19T22:56:18.962Z,10.50
2022-12-19T22:58:49.952Z,10.70
2022-12-19T23:01:21.720Z,10.70
2022-12-19T23:03:52.077Z,10.60
2022-12-19T23:06:21.450Z,10.70
2022-12-19T23:08:51.222Z,10.70
2022-12-19T23:11:22.539Z,10.80
2022-12-19T23:13:51.349Z,11.00
2022-12-19T23:16:20.071Z,10.90
2022-12-19T23:18:48.301Z,11.00
2022-12-19T23:21:19.291Z,11.00
2022-12-19T23:23:49.894Z,11.10
2022-12-19T23:26:22.078Z,11.10
2022-12-19T23:28:53.850Z,11.20
2022-12-19T23:31:22.056Z,11.20
2022-12-19T23:33:50.570Z,11.20
2022-12-19T23:36:38.139Z,11.20
2022-12-19T23:39:07.685Z,11.20
2022-12-19T23:41:37.386Z,11.20
2022-12-19T23:44:06.012Z,11.20
2022-12-19T23:46:34.130Z,11.20
2022-12-19T23:49:02.344Z,11.20
2022-12-19T23:51:30.509Z,11.20
2022-12-19T23:53:58.707Z,11.50
2022-12-19T23:56:29.155Z,11.00
2022-12-19T23:58:59.364Z,11.00
